Armstrong Mills, Ohio
Current Conditions -  °F | °C
As of 1:53 PM on Tuesday 21 Oct 2014 (Local Time) from KHLG Reporting Station
Light Rain Light Rain  
Wind Chill: 11°   Ceiling: 6000
Heat Index: 11°   Visibility: 10mi
Dew Point:   Wind: 8mph
Humidity: 86%   Direction: 320°NW
Pressure: 29.9"   Gusts: NA
Location:  39.9375°N, 80.8976°W
Report Text: KHLG 211753Z 32007KT 10SM -RA FEW012 BKN060 OVC085 11/08 A2990 RMK AO2 RAB33 SLP130 P0000 60001 T01060083 10106 20100 58001
Loading
Personal Weather Stations






























Interactive Weather Map
Tropical Storm Tracking
New forecast layout! Learn more

10-Day Weather Forecast

Advertisements
Track Severe Weather on mobile